sensor_id;sensor_type;location;lat;lon;timestamp;P1;durP1;ratioP1;P2;durP2;ratioP2
62092;SDS011;59819;52.976;6.846;2022-11-15T00:01:58;20.98;;;10.77;;
62092;SDS011;59819;52.976;6.846;2022-11-15T00:04:24;25.83;;;12.00;;
62092;SDS011;59819;52.976;6.846;2022-11-15T00:06:51;20.75;;;10.63;;
62092;SDS011;59819;52.976;6.846;2022-11-15T00:09:17;21.60;;;11.15;;
62092;SDS011;59819;52.976;6.846;2022-11-15T00:11:43;22.90;;;11.55;;
62092;SDS011;59819;52.976;6.846;2022-11-15T00:14:09;20.98;;;10.63;;
62092;SDS011;59819;52.976;6.846;2022-11-15T00:16:35;22.25;;;10.63;;
62092;SDS011;59819;52.976;6.846;2022-11-15T00:19:01;22.30;;;11.60;;
62092;SDS011;59819;52.976;6.846;2022-11-15T00:21:27;23.15;;;10.98;;
62092;SDS011;59819;52.976;6.846;2022-11-15T00:23:53;24.45;;;11.55;;
62092;SDS011;59819;52.976;6.846;2022-11-15T00:26:19;24.58;;;11.13;;
62092;SDS011;59819;52.976;6.846;2022-11-15T00:28:45;21.75;;;11.27;;
62092;SDS011;59819;52.976;6.846;2022-11-15T00:31:12;22.08;;;11.43;;
62092;SDS011;59819;52.976;6.846;2022-11-15T00:33:38;23.80;;;11.13;;
62092;SDS011;59819;52.976;6.846;2022-11-15T00:36:05;21.15;;;10.95;;
62092;SDS011;59819;52.976;6.846;2022-11-15T00:38:36;19.67;;;10.13;;
62092;SDS011;59819;52.976;6.846;2022-11-15T00:41:04;23.10;;;11.07;;
62092;SDS011;59819;52.976;6.846;2022-11-15T00:43:30;20.63;;;9.85;;
62092;SDS011;59819;52.976;6.846;2022-11-15T00:45:56;19.92;;;10.02;;
62092;SDS011;59819;52.976;6.846;2022-11-15T00:48:22;20.38;;;10.55;;
62092;SDS011;59819;52.976;6.846;2022-11-15T00:50:49;23.15;;;10.48;;
62092;SDS011;59819;52.976;6.846;2022-11-15T00:53:15;23.33;;;10.82;;
62092;SDS011;59819;52.976;6.846;2022-11-15T00:55:41;23.35;;;11.07;;
62092;SDS011;59819;52.976;6.846;2022-11-15T00:58:07;25.17;;;11.48;;
62092;SDS011;59819;52.976;6.846;2022-11-15T01:00:33;24.60;;;10.85;;
62092;SDS011;59819;52.976;6.846;2022-11-15T01:03:02;24.67;;;10.80;;
62092;SDS011;59819;52.976;6.846;2022-11-15T01:05:28;22.98;;;10.75;;
62092;SDS011;59819;52.976;6.846;2022-11-15T01:07:57;23.95;;;10.65;;
62092;SDS011;59819;52.976;6.846;2022-11-15T01:10:23;21.33;;;10.00;;
62092;SDS011;59819;52.976;6.846;2022-11-15T01:12:51;21.60;;;10.02;;
62092;SDS011;59819;52.976;6.846;2022-11-15T01:15:17;23.17;;;9.75;;
62092;SDS011;59819;52.976;6.846;2022-11-15T01:17:43;18.15;;;9.00;;
62092;SDS011;59819;52.976;6.846;2022-11-15T01:20:09;22.55;;;9.52;;
62092;SDS011;59819;52.976;6.846;2022-11-15T01:22:35;22.73;;;9.73;;
62092;SDS011;59819;52.976;6.846;2022-11-15T01:25:01;21.13;;;9.88;;
62092;SDS011;59819;52.976;6.846;2022-11-15T01:27:27;21.42;;;9.15;;
62092;SDS011;59819;52.976;6.846;2022-11-15T01:29:53;21.38;;;9.90;;
62092;SDS011;59819;52.976;6.846;2022-11-15T01:32:19;20.42;;;8.90;;
62092;SDS011;59819;52.976;6.846;2022-11-15T01:34:45;19.10;;;9.18;;
62092;SDS011;59819;52.976;6.846;2022-11-15T01:37:11;21.17;;;9.65;;
62092;SDS011;59819;52.976;6.846;2022-11-15T01:39:37;24.77;;;10.25;;
62092;SDS011;59819;52.976;6.846;2022-11-15T01:42:03;19.45;;;9.02;;
62092;SDS011;59819;52.976;6.846;2022-11-15T01:47:17;24.02;;;8.57;;
62092;SDS011;59819;52.976;6.846;2022-11-15T01:49:59;23.17;;;9.35;;
62092;SDS011;59819;52.976;6.846;2022-11-15T01:52:26;19.53;;;9.00;;
62092;SDS011;59819;52.976;6.846;2022-11-15T01:54:55;22.00;;;9.35;;
62092;SDS011;59819;52.976;6.846;2022-11-15T01:57:22;20.40;;;9.40;;
62092;SDS011;59819;52.976;6.846;2022-11-15T01:59:48;20.95;;;9.40;;
62092;SDS011;59819;52.976;6.846;2022-11-15T02:02:14;19.35;;;9.00;;
62092;SDS011;59819;52.976;6.846;2022-11-15T02:04:42;19.23;;;9.05;;
62092;SDS011;59819;52.976;6.846;2022-11-15T02:07:08;20.77;;;9.35;;
62092;SDS011;59819;52.976;6.846;2022-11-15T02:09:36;19.48;;;9.40;;
62092;SDS011;59819;52.976;6.846;2022-11-15T02:12:02;20.30;;;9.13;;
62092;SDS011;59819;52.976;6.846;2022-11-15T02:14:28;23.05;;;9.20;;
62092;SDS011;59819;52.976;6.846;2022-11-15T02:32:50;19.20;;;8.73;;
62092;SDS011;59819;52.976;6.846;2022-11-15T02:35:28;19.75;;;8.95;;
62092;SDS011;59819;52.976;6.846;2022-11-15T02:37:56;17.50;;;8.73;;
62092;SDS011;59819;52.976;6.846;2022-11-15T02:40:38;23.40;;;9.60;;
62092;SDS011;59819;52.976;6.846;2022-11-15T02:43:08;19.73;;;8.90;;
62092;SDS011;59819;52.976;6.846;2022-11-15T02:46:00;22.77;;;9.10;;
62092;SDS011;59819;52.976;6.846;2022-11-15T02:48:27;22.30;;;9.40;;
62092;SDS011;59819;52.976;6.846;2022-11-15T02:50:54;22.52;;;9.85;;
62092;SDS011;59819;52.976;6.846;2022-11-15T02:53:24;24.45;;;9.98;;
62092;SDS011;59819;52.976;6.846;2022-11-15T02:55:50;21.83;;;9.27;;
62092;SDS011;59819;52.976;6.846;2022-11-15T03:03:53;22.65;;;9.60;;
62092;SDS011;59819;52.976;6.846;2022-11-15T03:06:35;20.95;;;9.13;;
62092;SDS011;59819;52.976;6.846;2022-11-15T03:09:04;22.30;;;9.50;;
62092;SDS011;59819;52.976;6.846;2022-11-15T03:11:35;21.98;;;9.15;;
62092;SDS011;59819;52.976;6.846;2022-11-15T03:14:07;26.25;;;10.65;;
62092;SDS011;59819;52.976;6.846;2022-11-15T03:16:37;24.92;;;10.35;;
62092;SDS011;59819;52.976;6.846;2022-11-15T03:19:17;24.40;;;11.37;;
62092;SDS011;59819;52.976;6.846;2022-11-15T03:21:44;23.17;;;9.68;;
62092;SDS011;59819;52.976;6.846;2022-11-15T03:24:11;27.42;;;10.05;;
62092;SDS011;59819;52.976;6.846;2022-11-15T03:26:41;23.70;;;10.02;;
62092;SDS011;59819;52.976;6.846;2022-11-15T03:29:17;21.13;;;9.80;;
62092;SDS011;59819;52.976;6.846;2022-11-15T03:31:45;23.92;;;9.90;;
62092;SDS011;59819;52.976;6.846;2022-11-15T03:34:13;21.30;;;9.32;;
62092;SDS011;59819;52.976;6.846;2022-11-15T03:36:41;20.20;;;9.40;;
62092;SDS011;59819;52.976;6.846;2022-11-15T03:39:07;22.13;;;9.35;;
62092;SDS011;59819;52.976;6.846;2022-11-15T03:41:43;25.92;;;9.80;;
62092;SDS011;59819;52.976;6.846;2022-11-15T03:44:14;21.55;;;10.05;;
62092;SDS011;59819;52.976;6.846;2022-11-15T03:46:51;20.83;;;9.60;;
62092;SDS011;59819;52.976;6.846;2022-11-15T03:49:24;21.58;;;9.48;;
62092;SDS011;59819;52.976;6.846;2022-11-15T03:51:51;21.80;;;9.57;;
62092;SDS011;59819;52.976;6.846;2022-11-15T03:54:17;23.00;;;10.00;;
62092;SDS011;59819;52.976;6.846;2022-11-15T03:56:43;25.55;;;9.82;;
62092;SDS011;59819;52.976;6.846;2022-11-15T03:59:09;24.13;;;10.75;;
62092;SDS011;59819;52.976;6.846;2022-11-15T04:01:35;25.38;;;10.57;;
62092;SDS011;59819;52.976;6.846;2022-11-15T04:04:01;29.23;;;11.05;;
62092;SDS011;59819;52.976;6.846;2022-11-15T04:06:27;22.88;;;10.15;;
62092;SDS011;59819;52.976;6.846;2022-11-15T04:08:53;23.08;;;10.30;;
62092;SDS011;59819;52.976;6.846;2022-11-15T04:11:19;28.55;;;10.93;;
62092;SDS011;59819;52.976;6.846;2022-11-15T04:13:45;25.58;;;10.85;;
62092;SDS011;59819;52.976;6.846;2022-11-15T04:16:11;25.48;;;11.32;;
62092;SDS011;59819;52.976;6.846;2022-11-15T04:18:37;26.60;;;10.70;;
62092;SDS011;59819;52.976;6.846;2022-11-15T04:21:03;26.45;;;10.38;;
62092;SDS011;59819;52.976;6.846;2022-11-15T04:23:48;24.63;;;10.63;;
62092;SDS011;59819;52.976;6.846;2022-11-15T04:26:33;31.00;;;11.23;;
62092;SDS011;59819;52.976;6.846;2022-11-15T04:28:59;25.90;;;10.95;;
62092;SDS011;59819;52.976;6.846;2022-11-15T04:31:43;24.17;;;11.23;;
62092;SDS011;59819;52.976;6.846;2022-11-15T04:34:09;31.15;;;11.88;;
62092;SDS011;59819;52.976;6.846;2022-11-15T04:36:35;26.73;;;11.63;;
62092;SDS011;59819;52.976;6.846;2022-11-15T04:39:20;25.13;;;11.40;;
62092;SDS011;59819;52.976;6.846;2022-11-15T04:41:46;28.83;;;11.40;;
62092;SDS011;59819;52.976;6.846;2022-11-15T04:44:12;28.48;;;12.15;;
62092;SDS011;59819;52.976;6.846;2022-11-15T04:46:38;30.58;;;12.13;;
62092;SDS011;59819;52.976;6.846;2022-11-15T04:49:04;26.70;;;11.60;;
62092;SDS011;59819;52.976;6.846;2022-11-15T04:51:30;29.38;;;10.93;;
62092;SDS011;59819;52.976;6.846;2022-11-15T04:53:56;36.00;;;12.10;;
62092;SDS011;59819;52.976;6.846;2022-11-15T04:56:22;31.08;;;12.75;;
62092;SDS011;59819;52.976;6.846;2022-11-15T04:58:48;35.20;;;13.13;;
62092;SDS011;59819;52.976;6.846;2022-11-15T05:01:14;32.88;;;13.18;;
62092;SDS011;59819;52.976;6.846;2022-11-15T05:03:41;31.63;;;12.50;;
62092;SDS011;59819;52.976;6.846;2022-11-15T05:06:26;34.33;;;13.60;;
62092;SDS011;59819;52.976;6.846;2022-11-15T05:08:52;40.38;;;14.32;;
62092;SDS011;59819;52.976;6.846;2022-11-15T05:11:19;37.90;;;13.70;;
62092;SDS011;59819;52.976;6.846;2022-11-15T05:13:45;36.00;;;14.85;;
62092;SDS011;59819;52.976;6.846;2022-11-15T05:16:11;37.97;;;14.55;;
62092;SDS011;59819;52.976;6.846;2022-11-15T05:18:37;39.55;;;15.63;;
62092;SDS011;59819;52.976;6.846;2022-11-15T05:21:08;41.25;;;15.55;;
62092;SDS011;59819;52.976;6.846;2022-11-15T05:23:34;41.42;;;15.20;;
62092;SDS011;59819;52.976;6.846;2022-11-15T05:26:00;41.92;;;15.48;;
62092;SDS011;59819;52.976;6.846;2022-11-15T05:28:26;39.38;;;15.05;;
62092;SDS011;59819;52.976;6.846;2022-11-15T05:30:52;40.88;;;14.52;;
62092;SDS011;59819;52.976;6.846;2022-11-15T05:33:18;40.60;;;15.60;;
62092;SDS011;59819;52.976;6.846;2022-11-15T05:35:54;41.75;;;15.73;;
62092;SDS011;59819;52.976;6.846;2022-11-15T05:38:23;38.38;;;14.73;;
62092;SDS011;59819;52.976;6.846;2022-11-15T05:40:49;38.03;;;15.27;;
62092;SDS011;59819;52.976;6.846;2022-11-15T05:43:15;40.30;;;15.70;;
62092;SDS011;59819;52.976;6.846;2022-11-15T05:45:41;45.78;;;15.82;;
62092;SDS011;59819;52.976;6.846;2022-11-15T05:48:07;40.47;;;14.50;;
62092;SDS011;59819;52.976;6.846;2022-11-15T05:50:34;39.53;;;14.80;;
62092;SDS011;59819;52.976;6.846;2022-11-15T05:53:01;38.13;;;15.05;;
62092;SDS011;59819;52.976;6.846;2022-11-15T05:55:27;36.22;;;15.05;;
62092;SDS011;59819;52.976;6.846;2022-11-15T05:57:53;36.65;;;14.55;;
62092;SDS011;59819;52.976;6.846;2022-11-15T06:00:20;41.38;;;14.20;;
62092;SDS011;59819;52.976;6.846;2022-11-15T06:02:45;35.13;;;14.45;;
62092;SDS011;59819;52.976;6.846;2022-11-15T06:05:11;32.05;;;14.40;;
62092;SDS011;59819;52.976;6.846;2022-11-15T06:07:37;32.45;;;13.85;;
62092;SDS011;59819;52.976;6.846;2022-11-15T06:10:04;39.28;;;14.10;;
62092;SDS011;59819;52.976;6.846;2022-11-15T06:12:30;37.90;;;14.77;;
62092;SDS011;59819;52.976;6.846;2022-11-15T06:14:56;37.17;;;14.35;;
62092;SDS011;59819;52.976;6.846;2022-11-15T06:17:22;30.65;;;13.05;;
62092;SDS011;59819;52.976;6.846;2022-11-15T06:19:48;34.50;;;14.02;;
62092;SDS011;59819;52.976;6.846;2022-11-15T06:22:13;32.58;;;13.82;;
62092;SDS011;59819;52.976;6.846;2022-11-15T06:24:39;33.30;;;13.43;;
62092;SDS011;59819;52.976;6.846;2022-11-15T06:27:05;30.92;;;13.98;;
62092;SDS011;59819;52.976;6.846;2022-11-15T06:29:31;33.92;;;13.00;;
62092;SDS011;59819;52.976;6.846;2022-11-15T06:31:57;38.47;;;13.68;;
62092;SDS011;59819;52.976;6.846;2022-11-15T06:34:23;29.38;;;13.35;;
62092;SDS011;59819;52.976;6.846;2022-11-15T06:36:49;31.55;;;12.73;;
62092;SDS011;59819;52.976;6.846;2022-11-15T06:39:15;32.75;;;12.80;;
62092;SDS011;59819;52.976;6.846;2022-11-15T06:41:41;32.63;;;14.05;;
62092;SDS011;59819;52.976;6.846;2022-11-15T06:44:07;32.92;;;13.07;;
62092;SDS011;59819;52.976;6.846;2022-11-15T06:46:34;30.73;;;12.50;;
62092;SDS011;59819;52.976;6.846;2022-11-15T06:49:00;31.42;;;12.35;;
62092;SDS011;59819;52.976;6.846;2022-11-15T06:51:26;29.20;;;12.75;;
62092;SDS011;59819;52.976;6.846;2022-11-15T06:53:52;35.20;;;12.57;;
62092;SDS011;59819;52.976;6.846;2022-11-15T06:56:18;28.52;;;11.52;;
62092;SDS011;59819;52.976;6.846;2022-11-15T06:58:44;31.30;;;12.65;;
62092;SDS011;59819;52.976;6.846;2022-11-15T07:01:11;31.35;;;12.38;;
62092;SDS011;59819;52.976;6.846;2022-11-15T07:03:38;33.85;;;13.23;;
62092;SDS011;59819;52.976;6.846;2022-11-15T07:06:04;33.25;;;12.60;;
62092;SDS011;59819;52.976;6.846;2022-11-15T07:08:30;32.00;;;13.25;;
62092;SDS011;59819;52.976;6.846;2022-11-15T07:11:00;33.13;;;12.48;;
62092;SDS011;59819;52.976;6.846;2022-11-15T07:13:27;26.58;;;11.57;;
62092;SDS011;59819;52.976;6.846;2022-11-15T07:15:53;32.45;;;12.77;;
62092;SDS011;59819;52.976;6.846;2022-11-15T07:18:19;31.45;;;12.32;;
62092;SDS011;59819;52.976;6.846;2022-11-15T07:20:45;25.73;;;11.57;;
62092;SDS011;59819;52.976;6.846;2022-11-15T07:23:11;35.22;;;13.38;;
62092;SDS011;59819;52.976;6.846;2022-11-15T07:25:37;28.63;;;12.02;;
62092;SDS011;59819;52.976;6.846;2022-11-15T07:28:03;30.92;;;12.32;;
62092;SDS011;59819;52.976;6.846;2022-11-15T07:30:29;26.83;;;12.15;;
62092;SDS011;59819;52.976;6.846;2022-11-15T07:32:56;30.92;;;12.23;;
62092;SDS011;59819;52.976;6.846;2022-11-15T07:35:22;29.92;;;12.95;;
62092;SDS011;59819;52.976;6.846;2022-11-15T07:37:55;29.75;;;12.15;;
62092;SDS011;59819;52.976;6.846;2022-11-15T07:40:22;31.55;;;12.60;;
62092;SDS011;59819;52.976;6.846;2022-11-15T07:42:48;30.15;;;12.48;;
62092;SDS011;59819;52.976;6.846;2022-11-15T07:45:21;29.33;;;12.48;;
62092;SDS011;59819;52.976;6.846;2022-11-15T07:47:48;29.85;;;12.07;;
62092;SDS011;59819;52.976;6.846;2022-11-15T07:50:15;29.20;;;11.25;;
62092;SDS011;59819;52.976;6.846;2022-11-15T07:52:41;27.70;;;11.45;;
62092;SDS011;59819;52.976;6.846;2022-11-15T07:55:07;25.48;;;11.13;;
62092;SDS011;59819;52.976;6.846;2022-11-15T07:57:33;26.50;;;11.32;;
62092;SDS011;59819;52.976;6.846;2022-11-15T07:59:59;25.30;;;11.45;;
62092;SDS011;59819;52.976;6.846;2022-11-15T08:02:25;25.60;;;11.38;;
62092;SDS011;59819;52.976;6.846;2022-11-15T08:04:51;24.38;;;10.90;;
62092;SDS011;59819;52.976;6.846;2022-11-15T08:07:17;26.05;;;11.75;;
62092;SDS011;59819;52.976;6.846;2022-11-15T08:09:43;26.45;;;12.10;;
62092;SDS011;59819;52.976;6.846;2022-11-15T08:12:09;26.92;;;11.88;;
62092;SDS011;59819;52.976;6.846;2022-11-15T08:14:35;28.33;;;11.85;;
62092;SDS011;59819;52.976;6.846;2022-11-15T08:17:01;25.60;;;11.57;;
62092;SDS011;59819;52.976;6.846;2022-11-15T08:19:27;23.95;;;10.73;;
62092;SDS011;59819;52.976;6.846;2022-11-15T08:21:53;23.98;;;11.02;;
62092;SDS011;59819;52.976;6.846;2022-11-15T08:24:19;26.27;;;10.88;;
62092;SDS011;59819;52.976;6.846;2022-11-15T08:26:45;24.95;;;10.73;;
62092;SDS011;59819;52.976;6.846;2022-11-15T08:29:12;23.27;;;10.88;;
62092;SDS011;59819;52.976;6.846;2022-11-15T08:31:38;23.95;;;10.95;;
62092;SDS011;59819;52.976;6.846;2022-11-15T08:34:04;25.95;;;10.85;;
62092;SDS011;59819;52.976;6.846;2022-11-15T08:36:30;24.30;;;11.05;;
62092;SDS011;59819;52.976;6.846;2022-11-15T08:38:56;22.65;;;10.50;;
62092;SDS011;59819;52.976;6.846;2022-11-15T08:41:27;24.58;;;10.82;;
62092;SDS011;59819;52.976;6.846;2022-11-15T08:43:53;24.52;;;11.40;;
62092;SDS011;59819;52.976;6.846;2022-11-15T08:46:19;23.00;;;11.23;;
62092;SDS011;59819;52.976;6.846;2022-11-15T08:48:45;23.48;;;10.90;;
62092;SDS011;59819;52.976;6.846;2022-11-15T08:51:11;22.65;;;11.02;;
62092;SDS011;59819;52.976;6.846;2022-11-15T08:53:37;23.25;;;10.27;;
62092;SDS011;59819;52.976;6.846;2022-11-15T08:56:06;23.42;;;10.52;;
62092;SDS011;59819;52.976;6.846;2022-11-15T08:58:32;25.45;;;11.57;;
62092;SDS011;59819;52.976;6.846;2022-11-15T09:00:58;21.48;;;10.95;;
62092;SDS011;59819;52.976;6.846;2022-11-15T09:03:24;23.02;;;10.05;;
62092;SDS011;59819;52.976;6.846;2022-11-15T09:05:54;21.90;;;10.90;;
62092;SDS011;59819;52.976;6.846;2022-11-15T09:08:21;23.40;;;11.30;;
62092;SDS011;59819;52.976;6.846;2022-11-15T09:10:47;22.80;;;10.93;;
62092;SDS011;59819;52.976;6.846;2022-11-15T09:13:12;23.35;;;11.23;;
62092;SDS011;59819;52.976;6.846;2022-11-15T09:15:39;24.20;;;10.38;;
62092;SDS011;59819;52.976;6.846;2022-11-15T09:18:05;24.27;;;11.77;;
62092;SDS011;59819;52.976;6.846;2022-11-15T09:20:31;23.17;;;11.20;;
62092;SDS011;59819;52.976;6.846;2022-11-15T09:23:00;21.90;;;11.20;;
62092;SDS011;59819;52.976;6.846;2022-11-15T09:25:26;20.92;;;10.82;;
62092;SDS011;59819;52.976;6.846;2022-11-15T09:27:53;23.60;;;11.50;;
62092;SDS011;59819;52.976;6.846;2022-11-15T09:30:19;23.15;;;11.27;;
62092;SDS011;59819;52.976;6.846;2022-11-15T09:32:44;25.75;;;11.35;;
62092;SDS011;59819;52.976;6.846;2022-11-15T09:35:10;23.83;;;10.75;;
62092;SDS011;59819;52.976;6.846;2022-11-15T09:37:36;22.55;;;11.10;;
62092;SDS011;59819;52.976;6.846;2022-11-15T09:40:02;24.20;;;10.63;;
62092;SDS011;59819;52.976;6.846;2022-11-15T09:45:08;22.85;;;10.77;;
62092;SDS011;59819;52.976;6.846;2022-11-15T09:47:43;23.65;;;10.55;;
62092;SDS011;59819;52.976;6.846;2022-11-15T09:50:11;21.38;;;11.13;;
62092;SDS011;59819;52.976;6.846;2022-11-15T09:52:39;25.05;;;11.55;;
62092;SDS011;59819;52.976;6.846;2022-11-15T09:55:08;24.50;;;10.93;;
62092;SDS011;59819;52.976;6.846;2022-11-15T09:57:39;21.90;;;11.35;;
62092;SDS011;59819;52.976;6.846;2022-11-15T10:00:09;22.10;;;10.95;;
62092;SDS011;59819;52.976;6.846;2022-11-15T10:05:07;25.92;;;11.55;;
62092;SDS011;59819;52.976;6.846;2022-11-15T10:07:55;23.85;;;11.68;;
62092;SDS011;59819;52.976;6.846;2022-11-15T10:10:35;24.80;;;12.15;;
62092;SDS011;59819;52.976;6.846;2022-11-15T10:13:02;26.58;;;12.15;;
62092;SDS011;59819;52.976;6.846;2022-11-15T10:15:29;26.30;;;12.27;;
62092;SDS011;59819;52.976;6.846;2022-11-15T10:20:28;24.85;;;11.25;;
62092;SDS011;59819;52.976;6.846;2022-11-15T10:23:40;21.75;;;10.23;;
62092;SDS011;59819;52.976;6.846;2022-11-15T10:25:41;21.80;;;10.93;;
62092;SDS011;59819;52.976;6.846;2022-11-15T10:28:13;25.50;;;10.73;;
62092;SDS011;59819;52.976;6.846;2022-11-15T10:33:10;22.45;;;11.07;;
62092;SDS011;59819;52.976;6.846;2022-11-15T10:35:37;26.48;;;11.65;;
62092;SDS011;59819;52.976;6.846;2022-11-15T10:38:10;25.42;;;11.75;;
62092;SDS011;59819;52.976;6.846;2022-11-15T10:40:37;24.02;;;11.68;;
62092;SDS011;59819;52.976;6.846;2022-11-15T10:43:04;25.08;;;11.63;;
62092;SDS011;59819;52.976;6.846;2022-11-15T10:45:32;25.65;;;11.95;;
62092;SDS011;59819;52.976;6.846;2022-11-15T10:48:18;23.05;;;11.18;;
62092;SDS011;59819;52.976;6.846;2022-11-15T10:50:45;22.75;;;10.85;;
62092;SDS011;59819;52.976;6.846;2022-11-15T10:55:41;24.08;;;10.52;;
62092;SDS011;59819;52.976;6.846;2022-11-15T11:03:39;19.58;;;10.23;;
62092;SDS011;59819;52.976;6.846;2022-11-15T11:06:16;22.52;;;10.77;;
62092;SDS011;59819;52.976;6.846;2022-11-15T11:11:47;19.77;;;9.82;;
62092;SDS011;59819;52.976;6.846;2022-11-15T11:14:17;23.42;;;10.90;;
62092;SDS011;59819;52.976;6.846;2022-11-15T11:17:05;21.08;;;9.98;;
62092;SDS011;59819;52.976;6.846;2022-11-15T11:19:39;18.23;;;8.82;;
62092;SDS011;59819;52.976;6.846;2022-11-15T11:33:11;16.63;;;7.50;;
62092;SDS011;59819;52.976;6.846;2022-11-15T11:35:57;16.00;;;7.57;;
62092;SDS011;59819;52.976;6.846;2022-11-15T11:38:40;14.35;;;7.38;;
62092;SDS011;59819;52.976;6.846;2022-11-15T11:41:20;8.73;;;5.30;;
62092;SDS011;59819;52.976;6.846;2022-11-15T11:44:08;9.95;;;5.60;;
62092;SDS011;59819;52.976;6.846;2022-11-15T11:54:33;6.70;;;3.50;;
62092;SDS011;59819;52.976;6.846;2022-11-15T11:57:03;8.00;;;4.03;;
62092;SDS011;59819;52.976;6.846;2022-11-15T12:02:14;6.82;;;3.67;;
62092;SDS011;59819;52.976;6.846;2022-11-15T12:07:08;4.45;;;2.75;;
62092;SDS011;59819;52.976;6.846;2022-11-15T12:09:41;5.05;;;2.80;;
62092;SDS011;59819;52.976;6.846;2022-11-15T12:14:41;6.13;;;3.08;;
62092;SDS011;59819;52.976;6.846;2022-11-15T12:17:09;7.32;;;3.30;;
62092;SDS011;59819;52.976;6.846;2022-11-15T12:19:36;6.30;;;3.53;;
62092;SDS011;59819;52.976;6.846;2022-11-15T12:22:04;6.65;;;3.45;;
62092;SDS011;59819;52.976;6.846;2022-11-15T12:27:30;6.13;;;3.30;;
62092;SDS011;59819;52.976;6.846;2022-11-15T12:29:58;7.30;;;3.17;;
62092;SDS011;59819;52.976;6.846;2022-11-15T12:32:27;5.47;;;3.50;;
62092;SDS011;59819;52.976;6.846;2022-11-15T12:34:54;5.93;;;3.30;;
62092;SDS011;59819;52.976;6.846;2022-11-15T12:43:00;4.68;;;2.65;;
62092;SDS011;59819;52.976;6.846;2022-11-15T12:45:31;5.53;;;2.83;;
62092;SDS011;59819;52.976;6.846;2022-11-15T12:58:44;3.28;;;2.13;;
62092;SDS011;59819;52.976;6.846;2022-11-15T13:01:55;3.70;;;2.13;;
62092;SDS011;59819;52.976;6.846;2022-11-15T13:06:42;4.53;;;1.80;;
62092;SDS011;59819;52.976;6.846;2022-11-15T13:11:54;3.42;;;1.90;;
62092;SDS011;59819;52.976;6.846;2022-11-15T13:14:54;2.38;;;1.60;;
62092;SDS011;59819;52.976;6.846;2022-11-15T13:19:59;4.38;;;1.95;;
62092;SDS011;59819;52.976;6.846;2022-11-15T13:22:37;2.70;;;1.80;;
62092;SDS011;59819;52.976;6.846;2022-11-15T13:27:48;3.33;;;1.85;;
62092;SDS011;59819;52.976;6.846;2022-11-15T13:30:22;3.72;;;2.10;;
62092;SDS011;59819;52.976;6.846;2022-11-15T13:32:49;3.90;;;2.25;;
62092;SDS011;59819;52.976;6.846;2022-11-15T13:35:23;3.17;;;1.90;;
62092;SDS011;59819;52.976;6.846;2022-11-15T13:37:49;3.42;;;2.08;;
62092;SDS011;59819;52.976;6.846;2022-11-15T13:42:42;3.80;;;2.28;;
62092;SDS011;59819;52.976;6.846;2022-11-15T13:45:11;3.45;;;2.20;;
62092;SDS011;59819;52.976;6.846;2022-11-15T13:47:38;4.82;;;2.42;;
62092;SDS011;59819;52.976;6.846;2022-11-15T13:50:04;3.20;;;2.28;;
62092;SDS011;59819;52.976;6.846;2022-11-15T13:52:31;4.57;;;2.17;;
62092;SDS011;59819;52.976;6.846;2022-11-15T13:55:08;4.97;;;2.13;;
62092;SDS011;59819;52.976;6.846;2022-11-15T13:57:43;3.42;;;2.00;;
62092;SDS011;59819;52.976;6.846;2022-11-15T14:00:26;3.25;;;2.20;;
62092;SDS011;59819;52.976;6.846;2022-11-15T14:02:53;3.97;;;2.13;;
62092;SDS011;59819;52.976;6.846;2022-11-15T14:05:21;2.00;;;1.70;;
62092;SDS011;59819;52.976;6.846;2022-11-15T14:07:54;2.42;;;1.80;;
62092;SDS011;59819;52.976;6.846;2022-11-15T14:10:33;7.97;;;4.07;;
62092;SDS011;59819;52.976;6.846;2022-11-15T14:12:59;3.10;;;2.00;;
62092;SDS011;59819;52.976;6.846;2022-11-15T14:15:28;3.45;;;1.75;;
62092;SDS011;59819;52.976;6.846;2022-11-15T14:17:54;3.30;;;2.00;;
62092;SDS011;59819;52.976;6.846;2022-11-15T14:22:53;3.65;;;2.00;;
62092;SDS011;59819;52.976;6.846;2022-11-15T14:25:21;4.72;;;2.10;;
62092;SDS011;59819;52.976;6.846;2022-11-15T14:30:31;3.63;;;2.45;;
62092;SDS011;59819;52.976;6.846;2022-11-15T14:32:57;5.40;;;2.22;;
62092;SDS011;59819;52.976;6.846;2022-11-15T14:35:23;3.30;;;2.22;;
62092;SDS011;59819;52.976;6.846;2022-11-15T14:37:49;3.83;;;2.38;;
62092;SDS011;59819;52.976;6.846;2022-11-15T14:40:17;3.35;;;2.42;;
62092;SDS011;59819;52.976;6.846;2022-11-15T14:42:44;3.90;;;2.45;;
62092;SDS011;59819;52.976;6.846;2022-11-15T14:45:12;4.13;;;2.67;;
62092;SDS011;59819;52.976;6.846;2022-11-15T14:47:38;4.60;;;2.55;;
62092;SDS011;59819;52.976;6.846;2022-11-15T14:50:04;3.67;;;2.75;;
62092;SDS011;59819;52.976;6.846;2022-11-15T14:52:31;3.22;;;2.20;;
62092;SDS011;59819;52.976;6.846;2022-11-15T14:55:01;3.92;;;2.70;;
62092;SDS011;59819;52.976;6.846;2022-11-15T14:57:27;3.58;;;2.55;;
62092;SDS011;59819;52.976;6.846;2022-11-15T14:59:53;3.72;;;2.70;;
62092;SDS011;59819;52.976;6.846;2022-11-15T15:04:45;3.88;;;3.00;;
62092;SDS011;59819;52.976;6.846;2022-11-15T15:07:11;5.63;;;3.38;;
62092;SDS011;59819;52.976;6.846;2022-11-15T15:09:37;4.80;;;2.75;;
62092;SDS011;59819;52.976;6.846;2022-11-15T15:12:04;4.20;;;2.90;;
62092;SDS011;59819;52.976;6.846;2022-11-15T15:14:31;4.40;;;3.15;;
62092;SDS011;59819;52.976;6.846;2022-11-15T15:16:57;5.78;;;3.38;;
62092;SDS011;59819;52.976;6.846;2022-11-15T15:19:23;5.07;;;3.40;;
62092;SDS011;59819;52.976;6.846;2022-11-15T15:21:49;3.80;;;2.90;;
62092;SDS011;59819;52.976;6.846;2022-11-15T15:24:15;4.22;;;2.88;;
62092;SDS011;59819;52.976;6.846;2022-11-15T15:26:41;5.18;;;3.20;;
62092;SDS011;59819;52.976;6.846;2022-11-15T15:29:08;5.95;;;3.47;;
62092;SDS011;59819;52.976;6.846;2022-11-15T15:31:34;5.07;;;3.33;;
62092;SDS011;59819;52.976;6.846;2022-11-15T15:34:00;4.38;;;3.05;;
62092;SDS011;59819;52.976;6.846;2022-11-15T15:36:26;5.15;;;3.47;;
62092;SDS011;59819;52.976;6.846;2022-11-15T15:38:53;4.55;;;3.33;;
62092;SDS011;59819;52.976;6.846;2022-11-15T15:41:19;5.35;;;3.42;;
62092;SDS011;59819;52.976;6.846;2022-11-15T15:43:46;5.25;;;3.40;;
62092;SDS011;59819;52.976;6.846;2022-11-15T15:46:17;5.90;;;3.45;;
62092;SDS011;59819;52.976;6.846;2022-11-15T15:48:43;6.93;;;3.47;;
62092;SDS011;59819;52.976;6.846;2022-11-15T15:51:10;5.20;;;3.15;;
62092;SDS011;59819;52.976;6.846;2022-11-15T15:53:36;6.07;;;3.25;;
62092;SDS011;59819;52.976;6.846;2022-11-15T15:56:03;5.40;;;3.30;;
62092;SDS011;59819;52.976;6.846;2022-11-15T15:58:29;5.05;;;3.47;;
62092;SDS011;59819;52.976;6.846;2022-11-15T16:00:56;5.00;;;3.17;;
62092;SDS011;59819;52.976;6.846;2022-11-15T16:03:22;5.15;;;3.28;;
62092;SDS011;59819;52.976;6.846;2022-11-15T16:05:49;5.40;;;3.53;;
62092;SDS011;59819;52.976;6.846;2022-11-15T16:08:19;6.25;;;3.45;;
62092;SDS011;59819;52.976;6.846;2022-11-15T16:10:45;5.30;;;3.20;;
62092;SDS011;59819;52.976;6.846;2022-11-15T16:13:11;5.25;;;2.90;;
62092;SDS011;59819;52.976;6.846;2022-11-15T16:15:37;7.13;;;2.88;;
62092;SDS011;59819;52.976;6.846;2022-11-15T16:18:04;4.13;;;2.88;;
62092;SDS011;59819;52.976;6.846;2022-11-15T16:23:06;3.97;;;2.50;;
62092;SDS011;59819;52.976;6.846;2022-11-15T16:25:44;3.58;;;2.40;;
62092;SDS011;59819;52.976;6.846;2022-11-15T16:28:15;3.50;;;2.40;;
62092;SDS011;59819;52.976;6.846;2022-11-15T16:30:42;4.53;;;2.28;;
62092;SDS011;59819;52.976;6.846;2022-11-15T16:33:08;3.75;;;2.10;;